createdAt,value
2019-06-26T00:01:33.546Z,11.65
2019-06-26T00:04:02.250Z,12.13
2019-06-26T00:06:30.994Z,12.10
2019-06-26T00:08:59.993Z,12.45
2019-06-26T00:11:29.622Z,12.70
2019-06-26T00:13:58.795Z,12.45
2019-06-26T00:16:27.450Z,10.63
2019-06-26T00:18:57.000Z,11.12
2019-06-26T00:21:26.166Z,11.40
2019-06-26T00:23:54.866Z,11.38
2019-06-26T00:26:23.814Z,11.97
2019-06-26T00:28:53.016Z,12.07
2019-06-26T00:31:21.680Z,12.65
2019-06-26T00:33:50.378Z,11.90
2019-06-26T00:36:19.129Z,12.68
2019-06-26T00:38:48.189Z,11.20
2019-06-26T00:41:16.849Z,12.75
2019-06-26T00:43:45.827Z,13.32
2019-06-26T00:46:14.487Z,12.15
2019-06-26T00:48:43.223Z,13.50
2019-06-26T00:51:11.908Z,14.35
2019-06-26T00:53:41.458Z,14.18
2019-06-26T00:56:10.173Z,13.38
2019-06-26T00:58:38.820Z,13.53
2019-06-26T01:01:07.571Z,14.28
2019-06-26T01:03:36.263Z,14.20
2019-06-26T01:06:05.013Z,13.75
2019-06-26T01:08:34.198Z,13.28
2019-06-26T01:11:03.211Z,13.50
2019-06-26T01:13:31.901Z,11.93
2019-06-26T01:16:00.575Z,13.90
2019-06-26T01:18:29.240Z,15.38
2019-06-26T01:20:58.006Z,14.98
2019-06-26T01:23:26.665Z,12.55
2019-06-26T01:25:55.373Z,16.45
2019-06-26T01:28:25.603Z,14.05
2019-06-26T01:30:54.269Z,15.15
2019-06-26T01:33:22.985Z,14.18
2019-06-26T01:35:52.508Z,14.80
2019-06-26T01:38:21.181Z,14.18
2019-06-26T01:40:50.184Z,13.55
2019-06-26T01:43:19.267Z,13.90
2019-06-26T01:45:47.994Z,15.63
2019-06-26T01:48:16.889Z,15.03
2019-06-26T01:50:45.863Z,14.53
2019-06-26T01:53:14.558Z,14.53
2019-06-26T01:55:43.960Z,14.58
2019-06-26T01:58:12.666Z,14.55
2019-06-26T02:00:41.341Z,14.93
2019-06-26T02:03:10.100Z,13.72
2019-06-26T02:05:38.793Z,13.50
2019-06-26T02:08:07.834Z,12.60
2019-06-26T02:10:38.089Z,12.60
2019-06-26T02:13:06.706Z,14.65
2019-06-26T02:15:36.685Z,13.65
2019-06-26T02:18:07.301Z,14.90
2019-06-26T02:20:36.477Z,16.23
2019-06-26T02:23:05.649Z,16.12
2019-06-26T02:25:35.583Z,16.60
2019-06-26T02:28:04.575Z,16.85
2019-06-26T02:30:34.985Z,16.48
2019-06-26T02:33:04.693Z,17.02
2019-06-26T02:35:33.375Z,17.37
2019-06-26T02:38:02.942Z,17.70
2019-06-26T02:40:31.642Z,17.90
2019-06-26T02:43:00.304Z,17.73
2019-06-26T02:45:29.069Z,14.80
2019-06-26T02:47:57.766Z,12.85
2019-06-26T02:50:26.556Z,16.07
2019-06-26T02:52:55.237Z,14.78
2019-06-26T02:55:24.331Z,14.00
2019-06-26T02:57:54.940Z,15.25
2019-06-26T03:00:24.141Z,16.60
2019-06-26T03:02:53.201Z,15.80
2019-06-26T03:05:23.379Z,17.45
2019-06-26T03:07:53.679Z,15.98
2019-06-26T03:10:22.426Z,17.12
2019-06-26T03:12:51.576Z,17.70
2019-06-26T03:15:20.466Z,16.10
2019-06-26T03:17:55.380Z,17.70
2019-06-26T03:20:23.757Z,16.40
2019-06-26T03:22:52.444Z,16.25
2019-06-26T03:25:22.114Z,16.05
2019-06-26T03:27:50.898Z,15.43
2019-06-26T03:30:21.476Z,15.93
2019-06-26T03:32:50.135Z,16.55
2019-06-26T03:35:19.351Z,16.12
2019-06-26T03:37:51.431Z,16.52
2019-06-26T03:40:20.827Z,14.75
2019-06-26T03:42:49.862Z,16.87
2019-06-26T03:45:25.703Z,17.17
2019-06-26T03:47:50.833Z,16.02
2019-06-26T03:50:22.780Z,15.75
2019-06-26T03:52:51.497Z,16.20
2019-06-26T03:55:24.457Z,14.50
2019-06-26T03:57:54.769Z,16.37
2019-06-26T04:00:32.429Z,15.05
2019-06-26T04:03:02.012Z,14.30
2019-06-26T04:05:32.230Z,15.85
2019-06-26T04:08:00.913Z,16.48
2019-06-26T04:10:33.376Z,16.73
2019-06-26T04:13:04.588Z,14.28
2019-06-26T04:15:41.888Z,16.00
2019-06-26T04:18:09.856Z,14.60
2019-06-26T04:20:44.588Z,15.32
2019-06-26T04:23:13.768Z,14.07
2019-06-26T04:25:43.513Z,15.13
2019-06-26T04:28:12.580Z,14.87
2019-06-26T04:30:44.482Z,15.13
2019-06-26T04:33:13.512Z,14.28
2019-06-26T04:35:42.206Z,15.25
2019-06-26T04:38:10.874Z,14.53
2019-06-26T04:40:41.050Z,14.25
2019-06-26T04:43:10.350Z,12.47
2019-06-26T04:45:57.216Z,14.78
2019-06-26T04:48:12.482Z,14.47
2019-06-26T04:50:41.647Z,12.98
2019-06-26T04:53:10.272Z,14.23
2019-06-26T04:55:38.965Z,12.58
2019-06-26T04:58:12.105Z,13.62
2019-06-26T05:00:44.415Z,13.48
2019-06-26T05:03:13.083Z,13.50
2019-06-26T05:05:44.423Z,12.98
2019-06-26T05:08:11.986Z,12.55
2019-06-26T05:10:40.682Z,14.25
2019-06-26T05:13:11.105Z,13.00
2019-06-26T05:15:43.819Z,13.78
2019-06-26T05:18:12.802Z,12.15
2019-06-26T05:20:41.482Z,13.15
2019-06-26T05:23:12.315Z,12.75
2019-06-26T05:25:42.066Z,13.48
2019-06-26T05:28:13.155Z,13.28
2019-06-26T05:30:41.882Z,13.32
2019-06-26T05:33:11.687Z,12.98
2019-06-26T05:35:40.379Z,13.15
2019-06-26T05:38:09.135Z,12.55
2019-06-26T05:40:37.801Z,12.35
2019-06-26T05:43:06.518Z,12.50
2019-06-26T05:45:35.192Z,12.23
2019-06-26T05:48:03.938Z,13.30
2019-06-26T05:50:32.634Z,11.43
2019-06-26T05:53:01.341Z,12.20
2019-06-26T05:55:31.585Z,12.93
2019-06-26T05:58:00.249Z,12.33
2019-06-26T06:00:33.675Z,13.03
2019-06-26T06:03:02.471Z,12.55
2019-06-26T06:05:35.471Z,13.62
2019-06-26T06:08:06.691Z,12.65
2019-06-26T06:10:35.697Z,11.70
2019-06-26T06:13:04.349Z,12.70
2019-06-26T06:15:35.373Z,12.65
2019-06-26T06:18:04.110Z,12.50
2019-06-26T06:20:38.781Z,12.23
2019-06-26T06:23:08.529Z,11.48
2019-06-26T06:25:39.028Z,14.70
2019-06-26T06:28:08.798Z,14.70
2019-06-26T06:30:37.495Z,13.18
2019-06-26T06:33:11.080Z,16.42
2019-06-26T06:35:42.524Z,15.13
2019-06-26T06:38:11.296Z,13.58
2019-06-26T06:40:40.021Z,14.55
2019-06-26T06:43:14.158Z,14.75
2019-06-26T06:45:43.150Z,14.35
2019-06-26T06:48:13.910Z,17.20
2019-06-26T06:50:48.989Z,15.20
2019-06-26T06:53:17.688Z,14.85
2019-06-26T06:55:46.398Z,14.23
2019-06-26T06:58:15.521Z,15.75
2019-06-26T07:00:44.211Z,14.18
2019-06-26T07:03:15.415Z,15.70
2019-06-26T07:05:44.095Z,17.17
2019-06-26T07:08:16.019Z,16.87
2019-06-26T07:10:44.771Z,16.87
2019-06-26T07:13:13.448Z,18.05
2019-06-26T07:15:42.142Z,15.72
2019-06-26T07:18:11.156Z,16.20
2019-06-26T07:20:44.601Z,16.30
2019-06-26T07:23:13.359Z,16.65
2019-06-26T07:25:42.105Z,15.58
2019-06-26T07:28:13.638Z,15.08
2019-06-26T07:30:44.156Z,14.13
2019-06-26T07:33:14.677Z,14.55
2019-06-26T07:35:46.322Z,12.63
2019-06-26T07:38:15.312Z,14.45
2019-06-26T07:40:48.020Z,14.70
2019-06-26T07:45:48.384Z,13.83
2019-06-26T07:48:19.568Z,15.20
2019-06-26T07:50:58.811Z,13.60
2019-06-26T07:53:27.862Z,16.65
2019-06-26T07:55:58.009Z,13.60
2019-06-26T07:58:27.365Z,13.68
2019-06-26T08:01:01.032Z,13.78
2019-06-26T08:03:33.059Z,13.03
2019-06-26T08:06:02.402Z,15.10
2019-06-26T08:08:31.081Z,13.90
2019-06-26T08:11:00.654Z,14.45
2019-06-26T08:13:53.458Z,15.88
2019-06-26T08:16:59.057Z,14.85
2019-06-26T08:19:32.578Z,15.58
2019-06-26T08:22:04.271Z,14.87
2019-06-26T08:24:34.021Z,18.92
2019-06-26T08:27:04.597Z,17.27
2019-06-26T08:29:33.647Z,15.18
2019-06-26T08:32:03.152Z,16.77
2019-06-26T08:34:33.550Z,14.78
2019-06-26T08:37:03.978Z,17.05
2019-06-26T08:39:38.017Z,17.15
2019-06-26T08:42:07.042Z,15.88
2019-06-26T08:44:35.709Z,17.20
2019-06-26T08:47:10.233Z,14.95
2019-06-26T08:49:39.332Z,16.55
2019-06-26T08:52:08.037Z,15.70
2019-06-26T08:54:36.723Z,17.57
2019-06-26T08:57:09.337Z,15.18
2019-06-26T09:02:11.145Z,16.77
2019-06-26T09:04:41.325Z,15.68
2019-06-26T09:07:11.024Z,15.58
2019-06-26T09:09:39.715Z,16.10
2019-06-26T09:12:11.599Z,15.50
2019-06-26T09:14:57.512Z,14.65
2019-06-26T09:17:26.465Z,16.37
2019-06-26T09:19:56.461Z,17.73
2019-06-26T09:22:26.515Z,18.12
2019-06-26T09:24:57.514Z,16.00
2019-06-26T09:27:27.808Z,16.73
2019-06-26T09:29:57.311Z,15.60
2019-06-26T09:32:27.455Z,16.45
2019-06-26T09:34:56.153Z,15.93
2019-06-26T09:37:25.145Z,13.30
2019-06-26T09:39:54.491Z,14.98
2019-06-26T09:42:23.531Z,14.95
2019-06-26T09:44:54.418Z,15.32
2019-06-26T09:47:23.175Z,13.40
2019-06-26T09:49:52.113Z,13.93
2019-06-26T09:52:23.380Z,12.90
2019-06-26T09:54:52.127Z,13.45
2019-06-26T09:57:22.149Z,12.93
2019-06-26T09:59:52.937Z,13.35
2019-06-26T10:02:24.623Z,12.28
2019-06-26T10:04:53.360Z,13.67
2019-06-26T10:07:22.189Z,14.00
2019-06-26T10:09:51.772Z,13.93
2019-06-26T10:12:22.160Z,13.22
2019-06-26T10:14:51.213Z,12.65
2019-06-26T10:17:19.910Z,13.20
2019-06-26T10:19:48.972Z,12.93
2019-06-26T10:22:18.330Z,14.47
2019-06-26T10:24:47.085Z,13.53
2019-06-26T10:27:15.757Z,14.28
2019-06-26T10:29:45.122Z,12.07
2019-06-26T10:32:15.946Z,11.97
2019-06-26T10:34:45.385Z,12.05
2019-06-26T10:37:14.139Z,11.12
2019-06-26T10:39:43.704Z,12.07
2019-06-26T10:42:13.914Z,11.53
2019-06-26T10:44:42.606Z,12.40
2019-06-26T10:47:11.315Z,11.83
2019-06-26T10:49:40.328Z,11.97
2019-06-26T10:52:09.338Z,12.10
2019-06-26T10:54:38.382Z,12.18
2019-06-26T10:57:07.085Z,11.55
2019-06-26T10:59:36.089Z,9.85
2019-06-26T11:02:05.554Z,12.07
2019-06-26T11:04:34.291Z,11.53
2019-06-26T11:07:02.958Z,10.70
2019-06-26T11:09:31.645Z,9.93
2019-06-26T11:12:00.419Z,7.62
2019-06-26T11:14:30.268Z,7.08
2019-06-26T11:16:59.227Z,6.83
2019-06-26T11:19:57.050Z,7.17
2019-06-26T11:22:25.708Z,6.50
2019-06-26T11:24:54.384Z,7.62
2019-06-26T11:27:24.399Z,7.67
2019-06-26T11:29:55.148Z,7.55
2019-06-26T11:32:26.158Z,6.97
2019-06-26T11:34:55.483Z,6.70
2019-06-26T11:37:28.423Z,6.70
2019-06-26T11:39:57.985Z,7.17
2019-06-26T11:42:31.809Z,6.30
2019-06-26T11:44:59.503Z,6.55
2019-06-26T11:47:28.654Z,8.15
2019-06-26T11:50:00.281Z,7.80
2019-06-26T11:52:29.046Z,7.60
2019-06-26T11:55:03.347Z,7.05
2019-06-26T11:57:34.207Z,7.80
2019-06-26T12:00:03.223Z,7.40
2019-06-26T12:02:31.889Z,7.85
2019-06-26T12:05:00.566Z,6.25
2019-06-26T12:07:31.654Z,7.10
2019-06-26T12:10:00.347Z,6.95
2019-06-26T12:12:31.417Z,7.80
2019-06-26T12:15:00.072Z,7.58
2019-06-26T12:17:28.740Z,7.05
2019-06-26T12:19:57.425Z,6.92
2019-06-26T12:22:26.470Z,7.03
2019-06-26T12:24:55.137Z,7.85
2019-06-26T12:27:24.810Z,6.62
2019-06-26T12:29:55.741Z,7.17
2019-06-26T12:32:26.007Z,6.80
2019-06-26T12:34:55.509Z,7.08
2019-06-26T12:37:36.856Z,7.03
2019-06-26T12:39:55.666Z,6.70
2019-06-26T12:42:24.992Z,6.85
2019-06-26T12:45:00.038Z,6.83
2019-06-26T12:47:29.004Z,6.45
2019-06-26T12:49:57.970Z,6.33
2019-06-26T12:52:26.663Z,6.70
2019-06-26T12:54:55.332Z,6.85
2019-06-26T12:57:24.081Z,6.37
2019-06-26T12:59:57.792Z,6.55
2019-06-26T13:02:23.145Z,6.37
2019-06-26T13:04:51.833Z,6.78
2019-06-26T13:07:20.788Z,7.00
2019-06-26T13:09:49.465Z,6.80
2019-06-26T13:12:19.498Z,7.80
2019-06-26T13:14:47.975Z,8.00
2019-06-26T13:17:17.003Z,8.45
2019-06-26T13:19:46.600Z,8.50
2019-06-26T13:22:15.713Z,8.23
2019-06-26T13:24:45.998Z,8.58
2019-06-26T13:27:14.616Z,8.83
2019-06-26T13:29:43.271Z,7.87
2019-06-26T13:32:14.344Z,9.05
2019-06-26T13:34:42.830Z,8.78
2019-06-26T13:37:11.507Z,8.85
2019-06-26T13:39:40.179Z,8.88
2019-06-26T13:42:08.925Z,8.50
2019-06-26T13:44:37.600Z,8.75
2019-06-26T13:47:06.271Z,9.85
2019-06-26T13:49:35.250Z,9.53
2019-06-26T13:52:03.998Z,8.25
2019-06-26T13:54:34.289Z,8.73
2019-06-26T13:57:02.922Z,8.55
2019-06-26T13:59:31.653Z,9.85
2019-06-26T14:02:00.316Z,10.45
2019-06-26T14:04:29.315Z,11.18
2019-06-26T14:06:58.454Z,10.80
2019-06-26T14:09:27.217Z,10.88
2019-06-26T14:11:58.374Z,10.60
2019-06-26T14:14:41.114Z,11.03
2019-06-26T14:17:02.240Z,12.23
2019-06-26T14:19:31.769Z,14.13
2019-06-26T14:22:00.772Z,13.88
2019-06-26T14:24:30.142Z,14.87
2019-06-26T14:27:00.571Z,14.50
2019-06-26T14:29:29.622Z,14.75
2019-06-26T14:31:59.497Z,14.35
2019-06-26T14:34:28.265Z,14.40
2019-06-26T14:36:56.952Z,15.70
2019-06-26T14:39:25.620Z,15.45
2019-06-26T14:41:54.287Z,15.28
2019-06-26T14:44:24.570Z,15.53
2019-06-26T14:46:54.993Z,14.70
2019-06-26T14:49:23.993Z,14.47
2019-06-26T14:51:52.687Z,15.32
2019-06-26T14:54:21.343Z,12.98
2019-06-26T14:56:50.081Z,12.53
2019-06-26T14:59:18.802Z,13.55
2019-06-26T15:01:47.775Z,13.55
2019-06-26T15:04:16.576Z,12.70
2019-06-26T15:06:45.201Z,10.95
2019-06-26T15:09:13.898Z,11.28
2019-06-26T15:11:42.874Z,12.37
2019-06-26T15:14:11.543Z,11.33
2019-06-26T15:16:40.233Z,10.95
2019-06-26T15:19:08.918Z,11.35
2019-06-26T15:21:37.603Z,10.95
2019-06-26T15:24:07.834Z,10.25
2019-06-26T15:26:36.545Z,9.60
2019-06-26T15:29:05.289Z,8.23
2019-06-26T15:31:33.950Z,7.12
2019-06-26T15:34:03.016Z,7.20
2019-06-26T15:36:31.671Z,6.17
2019-06-26T15:39:00.334Z,7.45
2019-06-26T15:41:29.011Z,6.35
2019-06-26T15:43:57.667Z,6.15
2019-06-26T15:46:26.679Z,6.47
2019-06-26T15:48:55.809Z,6.37
2019-06-26T15:51:24.819Z,6.70
2019-06-26T15:53:54.233Z,6.45
2019-06-26T15:56:23.614Z,6.55
2019-06-26T15:58:52.280Z,6.30
2019-06-26T16:01:22.685Z,6.70
2019-06-26T16:03:51.773Z,6.78
2019-06-26T16:06:20.455Z,6.80
2019-06-26T16:08:49.822Z,7.03
2019-06-26T16:11:21.044Z,7.50
2019-06-26T16:13:50.772Z,6.60
2019-06-26T16:16:20.417Z,7.85
2019-06-26T16:18:55.055Z,7.05
2019-06-26T16:21:23.712Z,8.35
2019-06-26T16:23:52.376Z,7.92
2019-06-26T16:26:21.092Z,7.97
2019-06-26T16:28:49.772Z,9.33
2019-06-26T16:31:18.436Z,7.58
2019-06-26T16:33:47.142Z,8.55
2019-06-26T16:36:15.831Z,8.13
2019-06-26T16:38:44.549Z,7.78
2019-06-26T16:41:13.270Z,9.13
2019-06-26T16:43:42.295Z,7.20
2019-06-26T16:46:10.958Z,7.70
2019-06-26T16:48:39.672Z,7.37
2019-06-26T16:51:08.419Z,7.75
2019-06-26T16:53:37.107Z,7.37
2019-06-26T16:56:06.212Z,7.60
2019-06-26T16:58:35.493Z,8.08
2019-06-26T17:01:04.567Z,7.85
2019-06-26T17:03:34.137Z,7.47
2019-06-26T17:06:03.780Z,7.53
2019-06-26T17:08:33.374Z,7.62
2019-06-26T17:11:02.062Z,8.98
2019-06-26T17:13:31.026Z,7.80
2019-06-26T17:16:00.470Z,6.80
2019-06-26T17:18:29.278Z,6.70
2019-06-26T17:20:58.580Z,7.50
2019-06-26T17:23:27.684Z,7.30
2019-06-26T17:25:56.746Z,8.13
2019-06-26T17:28:25.520Z,7.70
2019-06-26T17:30:54.482Z,7.12
2019-06-26T17:33:23.872Z,7.67
2019-06-26T17:35:53.532Z,7.97
2019-06-26T17:38:22.506Z,8.05
2019-06-26T17:40:52.078Z,7.87
2019-06-26T17:43:21.191Z,8.43
2019-06-26T17:45:50.238Z,7.70
2019-06-26T17:48:19.316Z,8.25
2019-06-26T17:50:48.995Z,7.90
2019-06-26T17:53:22.046Z,8.05
2019-06-26T17:55:48.340Z,7.70
2019-06-26T17:58:17.071Z,7.80
2019-06-26T18:00:45.716Z,6.75
2019-06-26T18:03:14.475Z,8.03
2019-06-26T18:05:43.252Z,7.35
2019-06-26T18:08:11.920Z,8.45
2019-06-26T18:10:40.621Z,7.12
2019-06-26T18:13:09.348Z,7.47
2019-06-26T18:15:38.024Z,6.45
2019-06-26T18:18:06.679Z,6.95
2019-06-26T18:20:35.761Z,6.62
2019-06-26T18:23:07.495Z,7.47
2019-06-26T18:25:34.910Z,6.47
2019-06-26T18:28:03.597Z,6.42
2019-06-26T18:30:33.037Z,6.28
2019-06-26T18:33:01.723Z,6.83
2019-06-26T18:35:30.398Z,6.00
2019-06-26T18:37:59.089Z,5.90
2019-06-26T18:40:27.824Z,5.45
2019-06-26T18:42:56.495Z,5.53
2019-06-26T18:45:25.184Z,6.12
2019-06-26T18:47:53.861Z,5.92
2019-06-26T18:50:22.548Z,6.10
2019-06-26T18:52:51.867Z,5.87
2019-06-26T18:55:20.610Z,6.83
2019-06-26T18:57:49.292Z,5.15
2019-06-26T19:00:20.502Z,6.70
2019-06-26T19:02:49.197Z,6.05
2019-06-26T19:05:18.053Z,5.22
2019-06-26T19:07:46.717Z,5.42
2019-06-26T19:10:16.037Z,5.45
2019-06-26T19:12:44.742Z,5.53
2019-06-26T19:15:14.185Z,5.35
2019-06-26T19:17:42.924Z,5.58
2019-06-26T19:20:12.996Z,5.58
2019-06-26T19:22:41.748Z,5.67
2019-06-26T19:25:11.420Z,5.35
2019-06-26T19:27:40.102Z,5.40
2019-06-26T19:30:09.540Z,5.03
2019-06-26T19:32:38.913Z,5.20
2019-06-26T19:35:18.700Z,5.25
2019-06-26T19:37:41.938Z,5.00
2019-06-26T19:40:11.362Z,5.00
2019-06-26T19:42:40.423Z,6.17
2019-06-26T19:45:11.078Z,5.12
2019-06-26T19:47:41.332Z,4.67
2019-06-26T19:50:11.036Z,5.47
2019-06-26T19:52:39.726Z,5.28
2019-06-26T19:55:10.140Z,4.87
2019-06-26T19:57:38.836Z,5.37
2019-06-26T20:00:08.838Z,5.28
2019-06-26T20:02:37.522Z,5.80
2019-06-26T20:05:06.660Z,4.95
2019-06-26T20:07:38.387Z,5.85
2019-06-26T20:10:09.714Z,6.15
2019-06-26T20:12:38.754Z,6.62
2019-06-26T20:15:08.615Z,6.90
2019-06-26T20:17:37.282Z,6.83
2019-06-26T20:20:09.339Z,6.78
2019-06-26T20:22:40.103Z,6.95
2019-06-26T20:25:10.467Z,8.28
2019-06-26T20:27:39.867Z,9.75
2019-06-26T20:30:10.161Z,9.28
2019-06-26T20:32:53.247Z,10.18
2019-06-26T20:35:23.934Z,8.70
2019-06-26T20:37:54.193Z,10.13
2019-06-26T20:40:23.308Z,9.55
2019-06-26T20:42:52.295Z,9.78
2019-06-26T20:45:21.782Z,10.30
2019-06-26T20:47:50.480Z,10.72
2019-06-26T20:50:20.307Z,10.68
2019-06-26T20:52:49.887Z,11.45
2019-06-26T20:55:18.646Z,11.43
2019-06-26T20:57:49.082Z,10.65
2019-06-26T21:00:17.871Z,10.93
2019-06-26T21:02:46.442Z,10.72
2019-06-26T21:05:15.916Z,10.40
2019-06-26T21:07:45.101Z,10.72
2019-06-26T21:10:15.138Z,10.05
2019-06-26T21:12:43.784Z,11.18
2019-06-26T21:15:12.568Z,9.85
2019-06-26T21:17:42.010Z,10.28
2019-06-26T21:20:10.833Z,11.40
2019-06-26T21:22:39.510Z,10.98
2019-06-26T21:25:18.142Z,11.20
2019-06-26T21:27:39.937Z,10.13
2019-06-26T21:30:09.240Z,9.63
2019-06-26T21:32:38.201Z,10.48
2019-06-26T21:35:08.067Z,10.10
2019-06-26T21:37:38.195Z,11.15
2019-06-26T21:40:08.362Z,10.75
2019-06-26T21:42:37.880Z,10.05
2019-06-26T21:45:07.832Z,7.92
2019-06-26T21:47:37.516Z,9.28
2019-06-26T21:50:07.395Z,8.73
2019-06-26T21:52:39.290Z,10.00
2019-06-26T21:55:09.285Z,9.48
2019-06-26T21:57:40.253Z,8.38
2019-06-26T22:00:10.695Z,8.88
2019-06-26T22:02:40.161Z,8.20
2019-06-26T22:05:10.818Z,9.33
2019-06-26T22:07:40.320Z,8.35
2019-06-26T22:10:09.872Z,8.30
2019-06-26T22:12:40.860Z,7.22
2019-06-26T22:15:12.028Z,6.80
2019-06-26T22:17:41.526Z,6.17
2019-06-26T22:20:12.778Z,5.92
2019-06-26T22:22:42.517Z,5.03
2019-06-26T22:25:12.265Z,5.10
2019-06-26T22:27:41.551Z,4.45
2019-06-26T22:30:13.052Z,5.08
2019-06-26T22:32:44.009Z,4.12
2019-06-26T22:35:14.043Z,5.40
2019-06-26T22:37:43.856Z,5.33
2019-06-26T22:40:13.348Z,4.12
2019-06-26T22:42:43.068Z,5.03
2019-06-26T22:45:12.681Z,4.95
2019-06-26T22:47:42.404Z,4.58
2019-06-26T22:50:12.359Z,4.78
2019-06-26T22:52:41.381Z,5.35
2019-06-26T22:55:10.619Z,4.75
2019-06-26T22:57:39.365Z,4.60
2019-06-26T23:00:13.154Z,4.35
2019-06-26T23:02:42.156Z,5.03
2019-06-26T23:05:13.115Z,4.78
2019-06-26T23:07:43.744Z,4.90
2019-06-26T23:10:14.225Z,5.33
2019-06-26T23:12:43.548Z,5.53
2019-06-26T23:15:15.275Z,5.65
2019-06-26T23:17:44.341Z,5.10
2019-06-26T23:20:14.267Z,5.08
2019-06-26T23:22:44.130Z,5.53
2019-06-26T23:25:13.284Z,5.40
2019-06-26T23:27:43.186Z,6.20
2019-06-26T23:30:19.248Z,6.03
2019-06-26T23:32:49.095Z,6.65
2019-06-26T23:35:20.401Z,6.00
2019-06-26T23:37:50.690Z,6.78
2019-06-26T23:40:19.574Z,7.80
2019-06-26T23:42:48.565Z,8.70
2019-06-26T23:45:19.163Z,7.10
2019-06-26T23:47:49.472Z,7.65
2019-06-26T23:50:18.569Z,8.00
2019-06-26T23:52:47.537Z,8.23
2019-06-26T23:55:16.311Z,9.78
2019-06-26T23:57:58.582Z,9.68
